TimeCDT,TemperatureF,Dew PointF,Humidity,Sea Level PressureIn,VisibilityMPH,Wind Direction,Wind SpeedMPH,Gust SpeedMPH,PrecipitationIn,Events,Conditions,WindDirDegrees,DateUTC
12:56 AM,63.9,59.9,87,30.02,10.0,South,5.8,-,N/A,,Clear,170,2013-04-18 05:56:00
1:56 AM,64.9,59.0,81,30.00,10.0,SSE,10.4,-,N/A,,Clear,160,2013-04-18 06:56:00
2:56 AM,65.8,59.0,79,29.99,10.0,South,9.2,-,N/A,,Clear,180,2013-04-18 07:56:00
3:56 AM,68.9,59.9,73,29.97,10.0,South,11.5,-,N/A,,Clear,190,2013-04-18 08:56:00
4:56 AM,65.8,59.9,81,29.99,10.0,South,8.1,-,N/A,,Clear,170,2013-04-18 09:56:00
5:56 AM,66.9,61.0,81,29.99,10.0,South,13.8,20.7,N/A,,Clear,180,2013-04-18 10:56:00
6:56 AM,68.0,61.0,78,30.01,10.0,South,18.4,28.8,N/A,,Clear,170,2013-04-18 11:56:00
7:56 AM,70.0,61.9,75,30.01,10.0,South,9.2,17.3,N/A,,Clear,190,2013-04-18 12:56:00
8:56 AM,72.9,61.9,68,30.01,10.0,South,13.8,24.2,N/A,,Clear,180,2013-04-18 13:56:00
9:56 AM,74.8,61.0,62,30.02,10.0,South,16.1,26.5,N/A,,Partly Cloudy,180,2013-04-18 14:56:00
10:56 AM,77.0,59.9,55,29.98,10.0,South,25.3,34.5,N/A,,Scattered Clouds,180,2013-04-18 15:56:00
11:56 AM,79.0,59.0,50,29.96,10.0,South,20.7,28.8,N/A,,Clear,180,2013-04-18 16:56:00
12:56 PM,79.9,55.9,44,29.94,10.0,South,25.3,34.5,N/A,,Clear,190,2013-04-18 17:56:00
1:56 PM,81.0,54.9,41,29.92,10.0,South,21.9,29.9,N/A,,Clear,170,2013-04-18 18:56:00
2:56 PM,81.0,52.9,38,29.88,10.0,South,18.4,33.4,N/A,,Clear,180,2013-04-18 19:56:00
3:56 PM,81.0,52.0,36,29.87,10.0,South,21.9,32.2,N/A,,Clear,180,2013-04-18 20:56:00
4:56 PM,79.9,52.9,39,29.86,10.0,South,20.7,29.9,N/A,,Partly Cloudy,190,2013-04-18 21:56:00
5:56 PM,77.9,52.0,40,29.84,10.0,South,18.4,28.8,N/A,,Clear,180,2013-04-18 22:56:00
6:56 PM,77.0,52.9,43,29.82,10.0,South,15.0,23.0,N/A,,Clear,180,2013-04-18 23:56:00
7:56 PM,75.9,54.0,46,29.82,10.0,South,17.3,27.6,N/A,,Clear,180,2013-04-19 00:56:00
8:56 PM,75.9,54.9,48,29.81,10.0,South,19.6,27.6,N/A,,Clear,180,2013-04-19 01:56:00
9:56 PM,74.8,55.9,52,29.75,10.0,SSE,17.3,24.2,N/A,,Clear,160,2013-04-19 02:56:00
10:56 PM,74.8,56.8,53,29.72,10.0,South,18.4,38.0,N/A,,Clear,170,2013-04-19 03:56:00
11:56 PM,73.9,57.9,57,29.70,10.0,South,21.9,38.0,N/A,,Clear,180,2013-04-19 04:56:00